createdAt,value
2018-08-18T00:00:27.452Z,0.00
2018-08-18T00:01:27.477Z,0.00
2018-08-18T00:02:27.501Z,0.00
2018-08-18T00:03:27.523Z,0.00
2018-08-18T00:04:27.544Z,0.00
2018-08-18T00:05:27.571Z,0.00
2018-08-18T00:06:27.591Z,0.00
2018-08-18T00:07:27.615Z,0.00
2018-08-18T00:08:27.692Z,0.00
2018-08-18T00:09:27.665Z,0.00
2018-08-18T00:10:27.712Z,0.00
2018-08-18T00:11:27.711Z,0.00
2018-08-18T00:12:27.735Z,0.00
2018-08-18T00:13:27.757Z,0.00
2018-08-18T00:14:27.784Z,0.00
2018-08-18T00:15:27.803Z,0.00
2018-08-18T00:16:27.828Z,0.00
2018-08-18T00:17:27.850Z,0.00
2018-08-18T00:18:27.877Z,0.00
2018-08-18T00:19:27.899Z,0.00
2018-08-18T00:20:27.922Z,0.00
2018-08-18T00:21:27.951Z,0.00
2018-08-18T00:22:27.973Z,0.00
2018-08-18T00:23:27.991Z,0.00
2018-08-18T00:24:28.018Z,4.00
2018-08-18T00:25:28.044Z,0.00
2018-08-18T00:26:28.067Z,0.00
2018-08-18T00:27:28.086Z,0.00
2018-08-18T00:28:28.111Z,0.00
2018-08-18T00:29:28.137Z,4.00
2018-08-18T00:30:28.162Z,0.00
2018-08-18T00:31:28.184Z,0.00
2018-08-18T00:32:28.211Z,0.00
2018-08-18T00:33:28.233Z,0.00
2018-08-18T00:34:28.257Z,0.00
2018-08-18T00:35:28.279Z,0.00
2018-08-18T00:36:28.298Z,0.00
2018-08-18T00:37:28.323Z,0.00
2018-08-18T00:38:28.349Z,0.00
2018-08-18T00:39:28.371Z,4.00
2018-08-18T00:40:28.399Z,0.00
2018-08-18T00:41:28.422Z,0.00
2018-08-18T00:42:28.442Z,0.00
2018-08-18T00:43:28.471Z,0.00
2018-08-18T00:44:28.496Z,0.00
2018-08-18T00:45:28.511Z,0.00
2018-08-18T00:46:28.538Z,0.00
2018-08-18T00:47:28.560Z,0.00
2018-08-18T00:48:28.587Z,0.00
2018-08-18T00:49:28.609Z,0.00
2018-08-18T00:50:28.635Z,0.00
2018-08-18T00:51:28.657Z,0.00
2018-08-18T00:52:28.678Z,0.00
2018-08-18T00:53:28.703Z,0.00
2018-08-18T00:54:28.726Z,0.00
2018-08-18T00:55:28.753Z,0.00
2018-08-18T00:56:28.776Z,0.00
2018-08-18T00:57:28.798Z,0.00
2018-08-18T00:58:28.822Z,0.00
2018-08-18T00:59:28.841Z,0.00
2018-08-18T01:00:28.867Z,0.00
2018-08-18T01:01:28.898Z,0.00
2018-08-18T01:02:28.918Z,0.00
2018-08-18T01:03:28.942Z,0.00
2018-08-18T01:04:28.961Z,4.00
2018-08-18T01:05:28.987Z,0.00
2018-08-18T01:06:29.010Z,0.00
2018-08-18T01:07:29.034Z,0.00
2018-08-18T01:08:29.058Z,0.00
2018-08-18T01:09:29.076Z,0.00
2018-08-18T01:10:29.109Z,0.00
2018-08-18T01:11:29.279Z,0.00
2018-08-18T01:12:29.308Z,0.00
2018-08-18T01:13:29.176Z,0.00
2018-08-18T01:14:29.246Z,0.00
2018-08-18T01:15:29.252Z,0.00
2018-08-18T01:16:29.246Z,0.00
2018-08-18T01:17:29.278Z,0.00
2018-08-18T01:18:29.288Z,0.00
2018-08-18T01:19:29.314Z,0.00
2018-08-18T01:20:29.335Z,0.00
2018-08-18T01:21:29.368Z,0.00
2018-08-18T01:22:29.388Z,0.00
2018-08-18T01:23:29.414Z,0.00
2018-08-18T01:24:29.433Z,0.00
2018-08-18T01:25:29.460Z,0.00
2018-08-18T01:26:29.476Z,0.00
2018-08-18T01:27:29.513Z,0.00
2018-08-18T01:28:29.528Z,0.00
2018-08-18T01:29:29.554Z,4.00
2018-08-18T01:30:29.572Z,0.00
2018-08-18T01:31:29.596Z,0.00
2018-08-18T01:32:29.620Z,0.00
2018-08-18T01:33:29.651Z,0.00
2018-08-18T01:34:29.671Z,0.00
2018-08-18T01:35:29.690Z,0.00
2018-08-18T01:36:29.721Z,0.00
2018-08-18T01:37:29.734Z,0.00
2018-08-18T01:38:29.763Z,0.00
2018-08-18T01:39:29.790Z,0.00
2018-08-18T01:40:29.811Z,0.00
2018-08-18T01:41:29.832Z,0.00
2018-08-18T01:42:29.853Z,0.00
2018-08-18T01:43:29.880Z,0.00
2018-08-18T01:44:29.902Z,0.00
2018-08-18T01:45:29.926Z,0.00
2018-08-18T01:46:29.951Z,0.00
2018-08-18T01:47:29.980Z,0.00
2018-08-18T01:48:29.999Z,0.00
2018-08-18T01:49:30.020Z,0.00
2018-08-18T01:50:30.040Z,0.00
2018-08-18T01:51:30.070Z,0.00
2018-08-18T01:52:30.091Z,0.00
2018-08-18T01:53:30.114Z,0.00
2018-08-18T01:54:30.143Z,0.00
2018-08-18T01:55:30.161Z,0.00
2018-08-18T01:56:30.185Z,0.00
2018-08-18T01:57:30.206Z,0.00
2018-08-18T01:58:30.235Z,0.00
2018-08-18T01:59:30.260Z,0.00
2018-08-18T02:00:30.280Z,0.00
2018-08-18T02:01:30.302Z,0.00
2018-08-18T02:02:30.328Z,0.00
2018-08-18T02:03:30.346Z,0.00
2018-08-18T02:04:30.373Z,4.00
2018-08-18T02:05:30.397Z,0.00
2018-08-18T02:06:30.416Z,0.00
2018-08-18T02:07:30.441Z,0.00
2018-08-18T02:08:30.464Z,0.00
2018-08-18T02:09:30.488Z,0.00
2018-08-18T02:10:30.516Z,0.00
2018-08-18T02:11:30.540Z,0.00
2018-08-18T02:12:30.555Z,0.00
2018-08-18T02:13:30.580Z,0.00
2018-08-18T02:14:30.604Z,0.00
2018-08-18T02:15:30.626Z,0.00
2018-08-18T02:16:30.657Z,0.00
2018-08-18T02:17:30.672Z,0.00
2018-08-18T02:18:30.700Z,0.00
2018-08-18T02:19:30.720Z,0.00
2018-08-18T02:20:30.749Z,0.00
2018-08-18T02:21:30.766Z,0.00
2018-08-18T02:22:30.791Z,0.00
2018-08-18T02:23:30.810Z,0.00
2018-08-18T02:24:30.834Z,0.00
2018-08-18T02:25:30.858Z,0.00
2018-08-18T02:26:30.881Z,0.00
2018-08-18T02:27:30.904Z,0.00
2018-08-18T02:28:30.936Z,0.00
2018-08-18T02:29:30.952Z,0.00
2018-08-18T02:30:30.976Z,0.00
2018-08-18T02:31:30.998Z,0.00
2018-08-18T02:32:31.020Z,0.00
2018-08-18T02:33:31.046Z,0.00
2018-08-18T02:34:31.073Z,0.00
2018-08-18T02:35:31.093Z,0.00
2018-08-18T02:36:31.115Z,0.00
2018-08-18T02:37:31.140Z,0.00
2018-08-18T02:38:31.166Z,0.00
2018-08-18T02:39:31.183Z,0.00
2018-08-18T02:40:31.208Z,0.00
2018-08-18T02:41:31.234Z,0.00
2018-08-18T02:42:31.257Z,0.00
2018-08-18T02:43:31.281Z,0.00
2018-08-18T02:44:31.302Z,0.00
2018-08-18T02:45:31.328Z,0.00
2018-08-18T02:46:31.343Z,0.00
2018-08-18T02:47:31.370Z,0.00
2018-08-18T02:48:31.392Z,0.00
2018-08-18T02:49:31.416Z,0.00
2018-08-18T02:50:31.442Z,0.00
2018-08-18T02:51:31.460Z,0.00
2018-08-18T02:52:31.488Z,0.00
2018-08-18T02:53:31.508Z,0.00
2018-08-18T02:54:31.537Z,0.00
2018-08-18T02:55:31.558Z,0.00
2018-08-18T02:56:31.580Z,0.00
2018-08-18T02:57:31.612Z,0.00
2018-08-18T02:58:31.625Z,0.00
2018-08-18T02:59:31.646Z,0.00
2018-08-18T03:00:31.679Z,0.00
2018-08-18T03:01:31.692Z,0.00
2018-08-18T03:02:31.714Z,0.00
2018-08-18T03:03:31.740Z,0.00
2018-08-18T03:04:31.763Z,0.00
2018-08-18T03:05:31.785Z,0.00
2018-08-18T03:06:31.810Z,0.00
2018-08-18T03:07:31.839Z,0.00
2018-08-18T03:08:31.851Z,0.00
2018-08-18T03:09:31.885Z,4.00
2018-08-18T03:10:31.898Z,0.00
2018-08-18T03:11:31.920Z,0.00
2018-08-18T03:12:31.949Z,0.00
2018-08-18T03:13:31.969Z,0.00
2018-08-18T03:14:31.996Z,4.00
2018-08-18T03:15:32.018Z,4.00
2018-08-18T03:16:32.039Z,0.00
2018-08-18T03:17:32.064Z,0.00
2018-08-18T03:18:32.087Z,0.00
2018-08-18T03:19:32.108Z,0.00
2018-08-18T03:20:32.132Z,0.00
2018-08-18T03:21:32.158Z,4.00
2018-08-18T03:22:32.182Z,4.00
2018-08-18T03:23:32.196Z,4.00
2018-08-18T03:24:32.231Z,0.00
2018-08-18T03:25:32.247Z,4.00
2018-08-18T03:26:32.274Z,4.00
2018-08-18T03:27:32.294Z,0.00
2018-08-18T03:28:32.318Z,4.00
2018-08-18T03:29:32.350Z,4.00
2018-08-18T03:30:32.366Z,4.00
2018-08-18T03:31:32.395Z,4.00
2018-08-18T03:32:32.411Z,4.00
2018-08-18T03:33:32.433Z,4.00
2018-08-18T03:34:32.455Z,8.00
2018-08-18T03:35:32.479Z,4.00
2018-08-18T03:36:32.503Z,8.00
2018-08-18T03:37:32.522Z,8.00
2018-08-18T03:38:32.547Z,8.00
2018-08-18T03:39:32.583Z,12.00
2018-08-18T03:40:32.598Z,12.00
2018-08-18T03:41:32.617Z,16.00
2018-08-18T03:42:32.640Z,20.00
2018-08-18T03:43:32.670Z,24.00
2018-08-18T03:44:32.682Z,24.00
2018-08-18T03:45:32.708Z,24.00
2018-08-18T03:46:32.732Z,32.00
2018-08-18T03:47:32.752Z,32.00
2018-08-18T03:48:32.776Z,40.00
2018-08-18T03:49:32.802Z,44.00
2018-08-18T03:50:32.821Z,52.00
2018-08-18T03:51:32.848Z,64.00
2018-08-18T03:52:32.995Z,72.00
2018-08-18T03:53:32.892Z,80.00
2018-08-18T03:54:32.917Z,92.00
2018-08-18T03:55:32.936Z,104.00
2018-08-18T03:56:32.960Z,116.00
2018-08-18T03:57:32.981Z,132.00
2018-08-18T03:58:33.009Z,148.00
2018-08-18T03:59:33.028Z,160.00
2018-08-18T04:00:33.052Z,176.00
2018-08-18T04:01:33.161Z,196.00
2018-08-18T04:02:33.101Z,216.00
2018-08-18T04:03:33.125Z,236.00
2018-08-18T04:04:33.140Z,256.00
2018-08-18T04:05:33.174Z,276.00
2018-08-18T04:06:33.196Z,292.00
2018-08-18T04:07:33.212Z,316.00
2018-08-18T04:08:33.239Z,340.00
2018-08-18T04:09:33.262Z,360.00
2018-08-18T04:10:33.283Z,384.00
2018-08-18T04:11:33.306Z,412.00
2018-08-18T04:12:33.329Z,436.00
2018-08-18T04:13:33.349Z,464.00
2018-08-18T04:14:33.369Z,492.00
2018-08-18T04:15:33.392Z,516.00
2018-08-18T04:16:33.421Z,548.00
2018-08-18T04:17:33.445Z,572.00
2018-08-18T04:18:33.461Z,604.00
2018-08-18T04:19:33.490Z,632.00
2018-08-18T04:20:33.509Z,668.00
2018-08-18T04:21:34.341Z,704.00
2018-08-18T04:22:33.557Z,740.00
2018-08-18T04:23:33.581Z,772.00
2018-08-18T04:24:33.607Z,792.00
2018-08-18T04:25:33.618Z,820.00
2018-08-18T04:26:33.645Z,848.00
2018-08-18T04:27:33.672Z,884.00
2018-08-18T04:28:33.704Z,928.00
2018-08-18T04:29:33.707Z,976.00
2018-08-18T04:30:33.733Z,1024.00
2018-08-18T04:31:33.753Z,1060.00
2018-08-18T04:32:33.785Z,1092.00
2018-08-18T04:33:33.808Z,1124.00
2018-08-18T04:34:33.825Z,1156.00
2018-08-18T04:35:33.850Z,1196.00
2018-08-18T04:36:33.868Z,1240.00
2018-08-18T04:37:33.911Z,1300.00
2018-08-18T04:38:33.941Z,1364.00
2018-08-18T04:39:33.947Z,1440.00
2018-08-18T04:40:33.960Z,1504.00
2018-08-18T04:41:34.015Z,1564.00
2018-08-18T04:42:34.326Z,1612.00
2018-08-18T04:43:34.042Z,1656.00
2018-08-18T04:44:34.257Z,1680.00
2018-08-18T04:45:34.077Z,1712.00
2018-08-18T04:46:34.711Z,1748.00
2018-08-18T04:47:34.136Z,1780.00
2018-08-18T04:48:34.359Z,1812.00
2018-08-18T04:49:34.164Z,1844.00
2018-08-18T04:50:34.293Z,1872.00
2018-08-18T04:51:34.223Z,1904.00
2018-08-18T04:52:34.259Z,1932.00
2018-08-18T04:53:34.281Z,1964.00
2018-08-18T04:54:34.297Z,1996.00
2018-08-18T04:55:34.305Z,2032.00
2018-08-18T04:56:34.346Z,2064.00
2018-08-18T04:57:35.074Z,2096.00
2018-08-18T04:58:34.376Z,2124.00
2018-08-18T04:59:34.392Z,2156.00
2018-08-18T05:00:34.431Z,2184.00
2018-08-18T05:01:35.364Z,2212.00
2018-08-18T05:02:34.479Z,2244.00
2018-08-18T05:03:34.575Z,2268.00
2018-08-18T05:04:34.523Z,2292.00
2018-08-18T05:05:34.738Z,2324.00
2018-08-18T05:07:34.599Z,2376.00
2018-08-18T05:08:34.917Z,2400.00
2018-08-18T05:09:35.756Z,2424.00
2018-08-18T05:11:34.726Z,2480.00
2018-08-18T05:12:34.706Z,2508.00
2018-08-18T05:13:34.736Z,2532.00
2018-08-18T05:14:35.168Z,2560.00
2018-08-18T05:15:34.779Z,2584.00
2018-08-18T05:16:35.214Z,2612.00
2018-08-18T05:17:34.824Z,2636.00
2018-08-18T05:18:34.851Z,2656.00
2018-08-18T05:19:34.854Z,2672.00
2018-08-18T05:20:34.872Z,2696.00
2018-08-18T05:21:34.892Z,2716.00
2018-08-18T05:22:34.920Z,2736.00
2018-08-18T05:23:34.938Z,2756.00
2018-08-18T05:24:34.968Z,2772.00
2018-08-18T05:25:34.992Z,2796.00
2018-08-18T05:26:35.010Z,2812.00
2018-08-18T05:27:35.040Z,2832.00
2018-08-18T05:28:35.054Z,2856.00
2018-08-18T05:29:35.092Z,2872.00
2018-08-18T05:30:35.101Z,2892.00
2018-08-18T05:31:35.124Z,2912.00
2018-08-18T05:32:35.150Z,2932.00
2018-08-18T05:33:35.166Z,2956.00
2018-08-18T05:34:35.194Z,2984.00
2018-08-18T05:35:35.216Z,3008.00
2018-08-18T05:36:35.302Z,3028.00
2018-08-18T05:37:35.262Z,3052.00
2018-08-18T05:38:35.287Z,3076.00
2018-08-18T05:39:35.309Z,3104.00
2018-08-18T05:40:35.327Z,3140.00
2018-08-18T05:41:35.353Z,3176.00
2018-08-18T05:42:35.380Z,3200.00
2018-08-18T05:43:35.397Z,3228.00
2018-08-18T05:44:35.423Z,3252.00
2018-08-18T05:45:35.446Z,3288.00
2018-08-18T05:46:35.466Z,3324.00
2018-08-18T05:47:35.600Z,3356.00
2018-08-18T05:48:35.517Z,3380.00
2018-08-18T05:49:35.546Z,3392.00
2018-08-18T05:50:35.556Z,3408.00
2018-08-18T05:51:35.606Z,3416.00
2018-08-18T05:52:35.607Z,3440.00
2018-08-18T05:53:35.629Z,3456.00
2018-08-18T05:54:35.661Z,3468.00
2018-08-18T05:55:35.681Z,3468.00
2018-08-18T05:56:35.698Z,3464.00
2018-08-18T05:57:35.722Z,3452.00
2018-08-18T05:58:35.751Z,3440.00
2018-08-18T05:59:35.789Z,3436.00
2018-08-18T06:00:35.800Z,3432.00
2018-08-18T06:01:35.813Z,3428.00
2018-08-18T06:02:35.838Z,3432.00
2018-08-18T06:03:35.863Z,3428.00
2018-08-18T06:04:35.889Z,3436.00
2018-08-18T06:05:35.950Z,3428.00
2018-08-18T06:06:35.931Z,3428.00
2018-08-18T06:07:35.957Z,3436.00
2018-08-18T06:08:35.976Z,3456.00
2018-08-18T06:09:35.997Z,3472.00
2018-08-18T06:10:36.021Z,3476.00
2018-08-18T06:11:36.047Z,3488.00
2018-08-18T06:12:36.068Z,3480.00
2018-08-18T06:13:36.091Z,3468.00
2018-08-18T06:14:36.118Z,3444.00
2018-08-18T06:15:36.141Z,3392.00
2018-08-18T06:16:36.164Z,3384.00
2018-08-18T06:17:36.188Z,3432.00
2018-08-18T06:18:36.211Z,3448.00
2018-08-18T06:19:36.234Z,3452.00
2018-08-18T06:20:36.253Z,3464.00
2018-08-18T06:21:36.281Z,3484.00
2018-08-18T06:22:36.301Z,3516.00
2018-08-18T06:23:36.327Z,3544.00
2018-08-18T06:24:36.345Z,3580.00
2018-08-18T06:25:36.375Z,3596.00
2018-08-18T06:26:36.409Z,3604.00
2018-08-18T06:27:36.420Z,3604.00
2018-08-18T06:28:36.441Z,3600.00
2018-08-18T06:29:36.467Z,3596.00
2018-08-18T06:30:36.495Z,3600.00
2018-08-18T06:31:36.516Z,3612.00
2018-08-18T06:32:36.535Z,3420.00
2018-08-18T06:33:36.566Z,3652.00
2018-08-18T06:34:36.621Z,3660.00
2018-08-18T06:35:36.604Z,3652.00
2018-08-18T06:36:36.634Z,3648.00
2018-08-18T06:37:36.654Z,3708.00
2018-08-18T06:38:36.691Z,3720.00
2018-08-18T06:39:36.704Z,3736.00
2018-08-18T06:40:36.729Z,3608.00
2018-08-18T06:41:36.806Z,3644.00
2018-08-18T06:42:36.777Z,3784.00
2018-08-18T06:43:36.795Z,3796.00
2018-08-18T06:44:36.816Z,3808.00
2018-08-18T06:45:36.839Z,3824.00
2018-08-18T06:46:36.865Z,3844.00
2018-08-18T06:47:36.883Z,3864.00
2018-08-18T06:48:36.908Z,3876.00
2018-08-18T06:49:36.934Z,3892.00
2018-08-18T06:50:36.957Z,3916.00
2018-08-18T06:51:36.981Z,3940.00
2018-08-18T06:52:37.010Z,3952.00
2018-08-18T06:53:37.033Z,3968.00
2018-08-18T06:54:37.128Z,3976.00
2018-08-18T06:55:37.088Z,3984.00
2018-08-18T06:56:37.099Z,3996.00
2018-08-18T06:57:37.129Z,4008.00
2018-08-18T06:58:37.159Z,4016.00
2018-08-18T06:59:37.176Z,4016.00
2018-08-18T07:00:37.195Z,4020.00
2018-08-18T07:01:37.219Z,4028.00
2018-08-18T07:02:37.247Z,4032.00
2018-08-18T07:03:37.267Z,4044.00
2018-08-18T07:04:37.300Z,4052.00
2018-08-18T07:05:37.317Z,4064.00
2018-08-18T07:06:37.340Z,4076.00
2018-08-18T07:07:37.360Z,4104.00
2018-08-18T07:08:37.388Z,4124.00
2018-08-18T07:09:37.409Z,4136.00
2018-08-18T07:10:37.436Z,4152.00
2018-08-18T07:11:37.454Z,4168.00
2018-08-18T07:12:37.486Z,4208.00
2018-08-18T07:13:37.506Z,4240.00
2018-08-18T07:14:37.529Z,4260.00
2018-08-18T07:15:37.554Z,4280.00
2018-08-18T07:16:37.586Z,4288.00
2018-08-18T07:17:37.599Z,4300.00
2018-08-18T07:18:37.621Z,4312.00
2018-08-18T07:19:37.649Z,4324.00
2018-08-18T07:20:37.676Z,4336.00
2018-08-18T07:21:37.695Z,4340.00
2018-08-18T07:22:37.721Z,4360.00
2018-08-18T07:23:37.743Z,4380.00
2018-08-18T07:24:37.767Z,4408.00
2018-08-18T07:25:37.795Z,4436.00
2018-08-18T07:26:37.824Z,4460.00
2018-08-18T07:27:37.838Z,4488.00
2018-08-18T07:28:37.939Z,4520.00
2018-08-18T07:29:37.889Z,4532.00
2018-08-18T07:30:37.914Z,4540.00
2018-08-18T07:31:37.932Z,4556.00
2018-08-18T07:32:37.966Z,4556.00
2018-08-18T07:33:37.990Z,4556.00
2018-08-18T07:34:38.009Z,4564.00
2018-08-18T07:35:38.035Z,4576.00
2018-08-18T07:36:38.059Z,4604.00
2018-08-18T07:37:38.141Z,4672.00
2018-08-18T07:38:38.111Z,4720.00
2018-08-18T07:39:38.127Z,4788.00
2018-08-18T07:40:38.152Z,4848.00
2018-08-18T07:41:38.177Z,4848.00
2018-08-18T07:42:38.203Z,4856.00
2018-08-18T07:43:38.237Z,4860.00
2018-08-18T07:44:38.249Z,4864.00
2018-08-18T07:45:38.279Z,4964.00
2018-08-18T07:46:38.301Z,4956.00
2018-08-18T07:47:38.321Z,5008.00
2018-08-18T07:48:38.346Z,5068.00
2018-08-18T07:49:38.375Z,5200.00
2018-08-18T07:50:38.395Z,5292.00
2018-08-18T07:51:38.423Z,5472.00
2018-08-18T07:52:38.445Z,5764.00
2018-08-18T07:53:38.563Z,5520.00
2018-08-18T07:54:38.494Z,5676.00
2018-08-18T07:55:38.513Z,5824.00
2018-08-18T07:56:38.547Z,5784.00
2018-08-18T07:57:38.565Z,5576.00
2018-08-18T07:58:38.591Z,5604.00
2018-08-18T07:59:38.640Z,5824.00
2018-08-18T08:00:38.639Z,5908.00
2018-08-18T08:01:38.662Z,5792.00
2018-08-18T08:02:38.687Z,5732.00
2018-08-18T08:03:38.713Z,5704.00
2018-08-18T08:04:38.734Z,5708.00
2018-08-18T08:05:38.813Z,5844.00
2018-08-18T08:06:38.787Z,5868.00
2018-08-18T08:07:38.811Z,5920.00
2018-08-18T08:08:38.855Z,6116.00
2018-08-18T08:09:38.862Z,6408.00
2018-08-18T08:10:38.886Z,6244.00
2018-08-18T08:11:38.921Z,6312.00
2018-08-18T08:12:39.090Z,6268.00
2018-08-18T08:13:38.964Z,5912.00
2018-08-18T08:14:38.985Z,5828.00
2018-08-18T08:15:39.012Z,5756.00
2018-08-18T08:16:39.031Z,5792.00
2018-08-18T08:17:39.056Z,5820.00
2018-08-18T08:18:39.083Z,5944.00
2018-08-18T08:19:39.106Z,5968.00
2018-08-18T08:20:39.129Z,6136.00
2018-08-18T08:21:39.157Z,5936.00
2018-08-18T08:22:39.180Z,5860.00
2018-08-18T08:23:39.203Z,5840.00
2018-08-18T08:24:39.228Z,5948.00
2018-08-18T08:25:39.256Z,6032.00
2018-08-18T08:26:39.283Z,6152.00
2018-08-18T08:27:39.303Z,6308.00
2018-08-18T08:28:39.332Z,6568.00
2018-08-18T08:29:39.352Z,6668.00
2018-08-18T08:30:39.379Z,6832.00
2018-08-18T08:31:39.401Z,7016.00
2018-08-18T08:32:39.429Z,7080.00
2018-08-18T08:33:39.454Z,7248.00
2018-08-18T08:34:39.477Z,7520.00
2018-08-18T08:35:39.501Z,7476.00
2018-08-18T08:36:39.537Z,7552.00
2018-08-18T08:37:39.552Z,7616.00
2018-08-18T08:38:39.581Z,7748.00
2018-08-18T08:39:39.603Z,7904.00
2018-08-18T08:40:39.627Z,7928.00
2018-08-18T08:41:39.645Z,7876.00
2018-08-18T08:42:39.671Z,7920.00
2018-08-18T08:43:39.696Z,8012.00
2018-08-18T08:44:39.724Z,8104.00
2018-08-18T08:45:39.753Z,8092.00
2018-08-18T08:46:39.777Z,8272.00
2018-08-18T08:47:39.805Z,8256.00
2018-08-18T08:48:39.831Z,8376.00
2018-08-18T08:49:39.851Z,8572.00
2018-08-18T08:50:39.876Z,8780.00
2018-08-18T08:51:39.899Z,8756.00
2018-08-18T08:52:39.922Z,8600.00
2018-08-18T08:53:39.950Z,8912.00
2018-08-18T08:54:39.971Z,8908.00
2018-08-18T08:55:39.997Z,8520.00
2018-08-18T08:56:40.026Z,8684.00
2018-08-18T08:57:40.052Z,8916.00
2018-08-18T08:58:40.073Z,9296.00
2018-08-18T08:59:40.095Z,9508.00
2018-08-18T09:00:40.128Z,10284.00
2018-08-18T09:01:40.150Z,11036.00
2018-08-18T09:02:40.170Z,11208.00
2018-08-18T09:03:40.205Z,11088.00
2018-08-18T09:04:40.228Z,10884.00
2018-08-18T09:05:40.250Z,11212.00
2018-08-18T09:06:40.276Z,10248.00
2018-08-18T09:07:40.300Z,10424.00
2018-08-18T09:08:40.327Z,10464.00
2018-08-18T09:09:40.354Z,10960.00
2018-08-18T09:10:40.373Z,11036.00
2018-08-18T09:11:40.399Z,10784.00
2018-08-18T09:12:40.424Z,10244.00
2018-08-18T09:13:40.451Z,10432.00
2018-08-18T09:14:40.477Z,11032.00
2018-08-18T09:15:40.505Z,11592.00
2018-08-18T09:16:40.528Z,13676.00
2018-08-18T09:17:40.559Z,13480.00
2018-08-18T09:18:40.593Z,13080.00
2018-08-18T09:19:40.605Z,12212.00
2018-08-18T09:20:40.630Z,12352.00
2018-08-18T09:21:40.657Z,12800.00
2018-08-18T09:22:40.685Z,13328.00
2018-08-18T09:23:40.700Z,13132.00
2018-08-18T09:24:40.734Z,13296.00
2018-08-18T09:25:40.759Z,13404.00
2018-08-18T09:26:40.787Z,13708.00
2018-08-18T09:27:40.814Z,14800.00
2018-08-18T09:28:40.837Z,14616.00
2018-08-18T09:29:40.863Z,13760.00
2018-08-18T09:30:40.892Z,13436.00
2018-08-18T09:31:40.911Z,13480.00
2018-08-18T09:32:40.939Z,13448.00
2018-08-18T09:33:40.960Z,13324.00
2018-08-18T09:34:40.989Z,13156.00
2018-08-18T09:35:41.018Z,12128.00
2018-08-18T09:36:41.039Z,11996.00
2018-08-18T09:37:41.071Z,11928.00
2018-08-18T09:38:41.094Z,12448.00
2018-08-18T09:39:41.121Z,12504.00
2018-08-18T09:40:41.148Z,12056.00
2018-08-18T09:41:41.175Z,12092.00
2018-08-18T09:42:41.201Z,11732.00
2018-08-18T09:43:41.229Z,12040.00
2018-08-18T09:44:41.256Z,11804.00
2018-08-18T09:45:41.273Z,11416.00
2018-08-18T09:46:41.301Z,11376.00
2018-08-18T09:47:41.330Z,11596.00
2018-08-18T09:48:41.350Z,11552.00
2018-08-18T09:49:41.386Z,10904.00
2018-08-18T09:50:41.408Z,10664.00
2018-08-18T09:51:41.434Z,11068.00
2018-08-18T09:52:41.455Z,10924.00
2018-08-18T09:53:41.487Z,10008.00
2018-08-18T09:54:41.509Z,10084.00
2018-08-18T09:55:41.538Z,10088.00
2018-08-18T09:56:41.561Z,10164.00
2018-08-18T09:57:41.588Z,9952.00
2018-08-18T09:58:41.672Z,9580.00
2018-08-18T09:59:41.639Z,9584.00
2018-08-18T10:00:41.670Z,9696.00
2018-08-18T10:01:41.685Z,9604.00
2018-08-18T10:02:41.713Z,9720.00
2018-08-18T10:03:41.741Z,10156.00
2018-08-18T10:04:41.761Z,10420.00
2018-08-18T10:05:41.795Z,9756.00
2018-08-18T10:06:41.829Z,9536.00
2018-08-18T10:07:41.844Z,9452.00
2018-08-18T10:08:41.880Z,9604.00
2018-08-18T10:09:41.899Z,9844.00
2018-08-18T10:10:41.926Z,9696.00
2018-08-18T10:11:41.948Z,9420.00
2018-08-18T10:12:41.980Z,9380.00
2018-08-18T10:13:41.998Z,9504.00
2018-08-18T10:14:42.028Z,9500.00
2018-08-18T10:15:42.052Z,9560.00
2018-08-18T10:16:42.081Z,9824.00
2018-08-18T10:17:42.099Z,10172.00
2018-08-18T10:18:42.130Z,10256.00
2018-08-18T10:19:42.152Z,9832.00
2018-08-18T10:20:42.181Z,10024.00
2018-08-18T10:21:42.210Z,10064.00
2018-08-18T10:22:42.263Z,10200.00
2018-08-18T10:23:42.254Z,10268.00
2018-08-18T10:24:42.279Z,10148.00
2018-08-18T10:25:42.310Z,10164.00
2018-08-18T10:26:42.340Z,9992.00
2018-08-18T10:27:42.361Z,10076.00
2018-08-18T10:28:42.386Z,10004.00
2018-08-18T10:29:42.414Z,9932.00
2018-08-18T10:30:42.437Z,9896.00
2018-08-18T10:31:42.459Z,9920.00
2018-08-18T10:32:42.492Z,10012.00
2018-08-18T10:33:42.512Z,10160.00
2018-08-18T10:34:42.537Z,10356.00
2018-08-18T10:35:42.561Z,10372.00
2018-08-18T10:36:42.587Z,10432.00
2018-08-18T10:37:42.619Z,10352.00
2018-08-18T10:38:42.648Z,10460.00
2018-08-18T10:39:42.668Z,10452.00
2018-08-18T10:40:42.697Z,10492.00
2018-08-18T10:41:42.718Z,10548.00
2018-08-18T10:42:42.746Z,10608.00
2018-08-18T10:43:42.770Z,10748.00
2018-08-18T10:44:42.792Z,11064.00
2018-08-18T10:45:42.822Z,11412.00
2018-08-18T10:46:42.850Z,11852.00
2018-08-18T10:47:42.876Z,12388.00
2018-08-18T10:48:42.905Z,12916.00
2018-08-18T10:49:42.924Z,13424.00
2018-08-18T10:50:42.952Z,13940.00
2018-08-18T10:51:43.106Z,14916.00
2018-08-18T10:52:43.003Z,16292.00
2018-08-18T10:53:43.039Z,18316.00
2018-08-18T10:54:43.064Z,21248.00
2018-08-18T10:55:43.084Z,29856.00
2018-08-18T10:56:43.112Z,58528.00
2018-08-18T10:57:43.134Z,74176.00
2018-08-18T10:58:43.166Z,76000.00
2018-08-18T10:59:43.188Z,81568.00
2018-08-18T11:00:43.221Z,82880.00
2018-08-18T11:01:43.248Z,85312.00
2018-08-18T11:02:43.276Z,85696.00
2018-08-18T11:03:43.304Z,87232.00
2018-08-18T11:04:43.334Z,83616.00
2018-08-18T11:05:43.362Z,80448.00
2018-08-18T11:06:43.388Z,81344.00
2018-08-18T11:07:43.415Z,77568.00
2018-08-18T11:08:43.456Z,81056.00
2018-08-18T11:09:43.480Z,77888.00
2018-08-18T11:10:43.504Z,81216.00
2018-08-18T11:11:43.545Z,87584.00
2018-08-18T11:12:44.986Z,85184.00
2018-08-18T11:13:43.606Z,85088.00
2018-08-18T11:14:43.660Z,82816.00
2018-08-18T11:15:43.667Z,80768.00
2018-08-18T11:16:43.694Z,79616.00
2018-08-18T11:17:43.733Z,79648.00
2018-08-18T11:18:43.764Z,80800.00
2018-08-18T11:19:43.794Z,81600.00
2018-08-18T11:20:43.831Z,83200.00
2018-08-18T11:22:36.706Z,84736.00
2018-08-18T11:23:36.742Z,85024.00
2018-08-18T11:24:36.768Z,86464.00
2018-08-18T11:25:36.809Z,87840.00
2018-08-18T11:26:36.847Z,89888.00
2018-08-18T11:27:36.874Z,90880.00
2018-08-18T11:28:37.091Z,92448.00
2018-08-18T11:29:36.940Z,93792.00
2018-08-18T11:30:36.988Z,98656.00
2018-08-18T11:31:37.009Z,97728.00
2018-08-18T11:32:37.049Z,95936.00
2018-08-18T11:33:37.082Z,94016.00
2018-08-18T11:34:37.115Z,95776.00
2018-08-18T11:35:37.144Z,91264.00
2018-08-18T11:36:37.183Z,93728.00
2018-08-18T11:37:37.222Z,94752.00
2018-08-18T11:38:37.258Z,95968.00
2018-08-18T11:39:37.292Z,102176.00
2018-08-18T11:40:37.326Z,102720.00
2018-08-18T11:41:37.405Z,101504.00
2018-08-18T11:42:37.399Z,101440.00
2018-08-18T11:43:37.428Z,100608.00
2018-08-18T11:44:37.469Z,100640.00
2018-08-18T11:45:37.509Z,97440.00
2018-08-18T11:46:37.538Z,94464.00
2018-08-18T11:47:37.578Z,99072.00
2018-08-18T11:48:37.616Z,104256.00
2018-08-18T11:49:37.651Z,106336.00
2018-08-18T11:50:37.686Z,106080.00
2018-08-18T11:51:37.718Z,105024.00
2018-08-18T11:52:37.755Z,102272.00
2018-08-18T11:53:37.803Z,102400.00
2018-08-18T11:54:37.826Z,100192.00
2018-08-18T11:55:37.873Z,100832.00
2018-08-18T11:56:37.908Z,104864.00
2018-08-18T11:57:37.944Z,107104.00
2018-08-18T11:58:37.979Z,103520.00
2018-08-18T11:59:38.011Z,100928.00
2018-08-18T12:00:38.051Z,105664.00
2018-08-18T12:01:38.084Z,106880.00
2018-08-18T12:02:38.124Z,106176.00
2018-08-18T12:03:38.162Z,108704.00
2018-08-18T12:04:38.196Z,109280.00
2018-08-18T12:05:38.236Z,107008.00
2018-08-18T12:06:38.275Z,104704.00
2018-08-18T12:07:38.311Z,106112.00
2018-08-18T12:08:38.346Z,102752.00
2018-08-18T12:09:38.384Z,106912.00
2018-08-18T12:10:38.484Z,113888.00
2018-08-18T12:11:38.451Z,113568.00
2018-08-18T12:12:38.494Z,107328.00
2018-08-18T12:13:38.534Z,111552.00
2018-08-18T12:14:38.570Z,106784.00
2018-08-18T12:15:38.608Z,109504.00
2018-08-18T12:16:38.645Z,110816.00
2018-08-18T12:17:38.682Z,110432.00
2018-08-18T12:18:38.716Z,109472.00
2018-08-18T12:19:38.759Z,112960.00
2018-08-18T12:20:38.795Z,114912.00
2018-08-18T12:21:38.835Z,113376.00
2018-08-18T12:22:38.877Z,108992.00
2018-08-18T12:23:38.905Z,108672.00